createdAt,value
2017-11-14T00:00:55.412Z,100979
2017-11-14T00:01:54.797Z,100977
2017-11-14T00:02:55.421Z,100977
2017-11-14T00:03:55.049Z,100977
2017-11-14T00:04:55.153Z,100975
2017-11-14T00:05:56.334Z,100977
2017-11-14T00:06:55.226Z,100977
2017-11-14T00:07:55.906Z,100975
2017-11-14T00:08:55.339Z,100976
2017-11-14T00:09:55.328Z,100976
2017-11-14T00:10:55.943Z,100970
2017-11-14T00:11:55.498Z,100979
2017-11-14T00:12:55.623Z,100976
2017-11-14T00:13:56.188Z,100977
2017-11-14T00:14:55.788Z,100974
2017-11-14T00:15:55.762Z,100973
2017-11-14T00:16:56.247Z,100973
2017-11-14T00:17:55.886Z,100965
2017-11-14T00:18:56.027Z,100974
2017-11-14T00:19:56.402Z,100974
2017-11-14T00:20:56.011Z,100974
2017-11-14T00:21:56.451Z,100975
2017-11-14T00:22:56.044Z,100971
2017-11-14T00:23:56.147Z,100971
2017-11-14T00:24:56.740Z,100975
2017-11-14T00:25:56.874Z,100974
2017-11-14T00:26:56.369Z,100972
2017-11-14T00:27:56.293Z,100974
2017-11-14T00:28:56.984Z,100971
2017-11-14T00:29:56.582Z,100975
2017-11-14T00:30:57.073Z,100974
2017-11-14T00:31:57.223Z,100970
2017-11-14T00:32:57.253Z,100972
2017-11-14T00:33:56.661Z,100974
2017-11-14T00:34:56.763Z,100975
2017-11-14T00:35:57.302Z,100975
2017-11-14T00:36:56.847Z,100977
2017-11-14T00:37:56.986Z,100976
2017-11-14T00:38:57.023Z,100979
2017-11-14T00:39:57.522Z,100979
2017-11-14T00:40:57.739Z,100977
2017-11-14T00:41:57.183Z,100979
2017-11-14T00:42:57.771Z,100979
2017-11-14T00:43:57.940Z,100979
2017-11-14T00:44:57.886Z,100978
2017-11-14T00:45:58.402Z,100980
2017-11-14T00:46:57.994Z,100981
2017-11-14T00:47:57.670Z,100978
2017-11-14T00:48:57.662Z,100982
2017-11-14T00:49:58.338Z,100981
2017-11-14T00:50:57.753Z,100982
2017-11-14T00:51:57.766Z,100986
2017-11-14T00:52:58.318Z,100988
2017-11-14T00:53:58.540Z,100980
2017-11-14T00:54:57.918Z,100985
2017-11-14T00:55:58.638Z,100984
2017-11-14T00:56:58.504Z,100987
2017-11-14T00:57:58.021Z,100986
2017-11-14T00:58:58.217Z,100987
2017-11-14T00:59:58.155Z,100982
2017-11-14T01:00:58.771Z,100988
2017-11-14T01:01:58.434Z,100987
2017-11-14T01:02:58.479Z,100988
2017-11-14T01:03:59.132Z,100990
2017-11-14T01:04:58.695Z,100994
2017-11-14T01:05:59.170Z,100993
2017-11-14T01:06:59.313Z,100993
2017-11-14T01:07:59.171Z,100995
2017-11-14T01:08:59.311Z,100992
2017-11-14T01:09:58.741Z,100994
2017-11-14T01:10:59.636Z,100996
2017-11-14T01:11:59.330Z,100993
2017-11-14T01:13:00.497Z,100994
2017-11-14T01:13:59.487Z,100996
2017-11-14T01:14:59.564Z,100994
2017-11-14T01:15:59.548Z,100996
2017-11-14T01:16:58.973Z,100995
2017-11-14T01:17:59.535Z,100997
2017-11-14T01:18:59.174Z,100994
2017-11-14T01:19:59.656Z,100999
2017-11-14T01:20:59.746Z,100994
2017-11-14T01:21:59.345Z,100991
2017-11-14T01:22:59.325Z,100992
2017-11-14T01:23:59.460Z,100998
2017-11-14T01:25:00.011Z,100997
2017-11-14T01:25:59.430Z,100998
2017-11-14T01:27:00.063Z,100998
2017-11-14T01:27:59.668Z,100995
2017-11-14T01:28:59.752Z,100999
2017-11-14T01:29:59.657Z,100996
2017-11-14T01:30:59.801Z,101002
2017-11-14T01:32:00.415Z,101000
2017-11-14T01:33:00.353Z,100994
2017-11-14T01:33:59.955Z,100999
2017-11-14T01:35:00.088Z,101002
2017-11-14T01:36:00.544Z,100990
2017-11-14T01:37:00.024Z,100998
2017-11-14T01:38:00.617Z,100997
2017-11-14T01:39:00.212Z,100998
2017-11-14T01:40:00.795Z,100993
2017-11-14T01:41:00.261Z,101000
2017-11-14T01:42:00.896Z,101003
2017-11-14T01:43:00.335Z,101002
2017-11-14T01:44:00.839Z,101000
2017-11-14T01:45:00.484Z,101004
2017-11-14T01:46:02.256Z,101006
2017-11-14T01:47:00.928Z,101005
2017-11-14T01:48:00.565Z,101008
2017-11-14T01:49:01.185Z,101006
2017-11-14T01:50:01.100Z,101007
2017-11-14T01:51:01.268Z,101008
2017-11-14T01:52:01.459Z,101001
2017-11-14T01:53:01.279Z,101008
2017-11-14T01:54:00.876Z,101008
2017-11-14T01:55:00.823Z,101007
2017-11-14T01:56:01.374Z,101013
2017-11-14T01:57:00.986Z,101009
2017-11-14T01:58:01.659Z,101010
2017-11-14T01:59:01.147Z,101005
2017-11-14T02:00:01.150Z,101001
2017-11-14T02:01:02.121Z,100994
2017-11-14T02:02:01.982Z,101007
2017-11-14T02:03:01.903Z,100998
2017-11-14T02:04:02.029Z,101000
2017-11-14T02:05:01.976Z,100997
2017-11-14T02:06:01.415Z,100998
2017-11-14T02:07:02.060Z,100999
2017-11-14T02:08:02.076Z,100998
2017-11-14T02:09:02.129Z,100994
2017-11-14T02:10:01.602Z,100992
2017-11-14T02:11:02.186Z,100998
2017-11-14T02:12:02.321Z,100998
2017-11-14T02:13:02.323Z,101001
2017-11-14T02:14:01.750Z,101001
2017-11-14T02:15:01.862Z,101002
2017-11-14T02:16:02.441Z,100999
2017-11-14T02:17:01.947Z,100996
2017-11-14T02:18:02.545Z,101001
2017-11-14T02:19:02.723Z,101002
2017-11-14T02:20:02.773Z,101002
2017-11-14T02:21:02.819Z,101000
2017-11-14T02:22:03.401Z,101002
2017-11-14T02:23:02.851Z,101005
2017-11-14T02:24:02.931Z,100997
2017-11-14T02:25:02.509Z,101008
2017-11-14T02:26:02.538Z,101007
2017-11-14T02:27:02.690Z,101011
2017-11-14T02:28:02.684Z,101006
2017-11-14T02:29:03.237Z,101001
2017-11-14T02:30:03.128Z,101006
2017-11-14T02:31:03.195Z,101005
2017-11-14T02:32:02.800Z,101002
2017-11-14T02:33:03.989Z,101005
2017-11-14T02:34:03.283Z,101004
2017-11-14T02:35:02.815Z,101008
2017-11-14T02:36:03.477Z,101003
2017-11-14T02:37:03.479Z,101007
2017-11-14T02:38:03.049Z,101018
2017-11-14T02:39:03.068Z,101015
2017-11-14T02:40:03.075Z,101014
2017-11-14T02:41:03.201Z,101016
2017-11-14T02:42:03.322Z,101018
2017-11-14T02:43:03.793Z,101017
2017-11-14T02:44:04.009Z,101021
2017-11-14T02:45:03.584Z,101020
2017-11-14T02:46:03.488Z,101020
2017-11-14T02:47:03.594Z,101020
2017-11-14T02:48:03.594Z,101019
2017-11-14T02:49:03.625Z,101019
2017-11-14T02:50:03.755Z,101019
2017-11-14T02:51:04.293Z,101020
2017-11-14T02:52:03.695Z,101015
2017-11-14T02:53:03.823Z,101019
2017-11-14T02:54:03.786Z,101024
2017-11-14T02:55:04.304Z,101023
2017-11-14T02:56:04.497Z,101023
2017-11-14T02:57:03.824Z,101019
2017-11-14T02:58:04.556Z,101019
2017-11-14T02:59:04.639Z,101024
2017-11-14T03:00:04.130Z,101025
2017-11-14T03:01:04.166Z,101024
2017-11-14T03:02:04.838Z,101020
2017-11-14T03:03:04.973Z,101029
2017-11-14T03:04:04.936Z,101031
2017-11-14T03:05:04.330Z,101028
2017-11-14T03:06:04.453Z,101031
2017-11-14T03:07:05.014Z,101027
2017-11-14T03:08:04.461Z,101021
2017-11-14T03:09:04.580Z,101024
2017-11-14T03:10:05.216Z,101024
2017-11-14T03:11:05.101Z,101021
2017-11-14T03:12:05.170Z,101021
2017-11-14T03:13:04.800Z,101020
2017-11-14T03:14:04.836Z,101022
2017-11-14T03:15:05.404Z,101020
2017-11-14T03:16:05.368Z,101020
2017-11-14T03:17:04.891Z,101017
2017-11-14T03:18:05.023Z,101022
2017-11-14T03:19:05.495Z,101024
2017-11-14T03:20:04.973Z,101028
2017-11-14T03:21:05.075Z,101024
2017-11-14T03:22:05.716Z,101025
2017-11-14T03:23:05.228Z,101031
2017-11-14T03:24:05.690Z,101027
2017-11-14T03:25:05.350Z,101024
2017-11-14T03:26:05.253Z,101028
2017-11-14T03:27:05.295Z,101027
2017-11-14T03:28:05.909Z,101026
2017-11-14T03:29:05.494Z,101023
2017-11-14T03:30:05.462Z,101025
2017-11-14T03:31:06.150Z,101028
2017-11-14T03:32:05.534Z,101023
2017-11-14T03:33:06.217Z,101025
2017-11-14T03:34:06.196Z,101025
2017-11-14T03:35:05.698Z,101024
2017-11-14T03:36:06.466Z,101020
2017-11-14T03:37:06.349Z,101024
2017-11-14T03:38:05.951Z,101022
2017-11-14T03:39:06.007Z,101023
2017-11-14T03:40:06.058Z,101018
2017-11-14T03:41:06.744Z,101023
2017-11-14T03:42:06.843Z,101025
2017-11-14T03:43:06.716Z,101024
2017-11-14T03:44:06.903Z,101019
2017-11-14T03:45:06.824Z,101023
2017-11-14T03:46:06.978Z,101024
2017-11-14T03:47:07.362Z,101022
2017-11-14T03:48:06.471Z,101019
2017-11-14T03:49:07.126Z,101020
2017-11-14T03:50:07.049Z,101019
2017-11-14T03:51:07.122Z,101024
2017-11-14T03:52:06.774Z,101021
2017-11-14T03:53:07.387Z,101022
2017-11-14T03:54:06.800Z,101021
2017-11-14T03:55:07.353Z,101018
2017-11-14T03:56:07.504Z,101025
2017-11-14T03:57:07.604Z,101024
2017-11-14T03:58:07.031Z,101031
2017-11-14T03:59:07.169Z,101028
2017-11-14T04:00:07.380Z,101029
2017-11-14T04:01:07.255Z,101029
2017-11-14T04:02:07.229Z,101031
2017-11-14T04:03:07.824Z,101029
2017-11-14T04:04:07.398Z,101032
2017-11-14T04:05:07.408Z,101025
2017-11-14T04:06:07.523Z,101023
2017-11-14T04:07:07.895Z,101023
2017-11-14T04:08:08.010Z,101026
2017-11-14T04:09:07.592Z,101027
2017-11-14T04:10:08.090Z,101022
2017-11-14T04:11:07.828Z,101026
2017-11-14T04:12:07.719Z,101028
2017-11-14T04:13:08.314Z,101024
2017-11-14T04:14:08.367Z,101032
2017-11-14T04:15:07.792Z,101034
2017-11-14T04:16:08.429Z,101032
2017-11-14T04:17:08.403Z,101034
2017-11-14T04:18:07.815Z,101033
2017-11-14T04:19:07.884Z,101035
2017-11-14T04:20:08.082Z,101035
2017-11-14T04:21:08.680Z,101036
2017-11-14T04:22:09.167Z,101036
2017-11-14T04:23:08.651Z,101033
2017-11-14T04:24:08.672Z,101036
2017-11-14T04:25:08.701Z,101034
2017-11-14T04:26:08.691Z,101036
2017-11-14T04:27:08.330Z,101029
2017-11-14T04:28:08.836Z,101035
2017-11-14T04:29:09.234Z,101035
2017-11-14T04:30:08.984Z,101039
2017-11-14T04:31:08.930Z,101041
2017-11-14T04:32:08.564Z,101037
2017-11-14T04:33:09.093Z,101035
2017-11-14T04:34:08.623Z,101028
2017-11-14T04:35:08.729Z,101039
2017-11-14T04:36:08.699Z,101035
2017-11-14T04:37:09.309Z,101030
2017-11-14T04:38:09.391Z,101040
2017-11-14T04:39:09.439Z,101043
2017-11-14T04:40:09.401Z,101035
2017-11-14T04:41:08.881Z,101036
2017-11-14T04:42:09.496Z,101039
2017-11-14T04:43:09.517Z,101032
2017-11-14T04:44:09.088Z,101037
2017-11-14T04:45:09.186Z,101040
2017-11-14T04:46:09.745Z,101037
2017-11-14T04:47:09.298Z,101038
2017-11-14T04:48:09.410Z,101031
2017-11-14T04:49:09.847Z,101026
2017-11-14T04:50:09.370Z,101032
2017-11-14T04:51:09.385Z,101026
2017-11-14T04:52:09.624Z,101032
2017-11-14T04:53:09.536Z,101028
2017-11-14T04:54:09.545Z,101030
2017-11-14T04:55:09.630Z,101025
2017-11-14T04:56:09.900Z,101031
2017-11-14T04:57:09.922Z,101031
2017-11-14T04:58:10.518Z,101029
2017-11-14T04:59:10.573Z,101034
2017-11-14T05:00:10.033Z,101031
2017-11-14T05:01:10.483Z,101032
2017-11-14T05:02:10.728Z,101036
2017-11-14T05:03:10.763Z,101035
2017-11-14T05:04:10.144Z,101027
2017-11-14T05:05:10.170Z,101030
2017-11-14T05:06:10.333Z,101030
2017-11-14T05:07:10.281Z,101030
2017-11-14T05:08:10.963Z,101025
2017-11-14T05:09:10.362Z,101031
2017-11-14T05:10:10.960Z,101026
2017-11-14T05:11:10.885Z,101032
2017-11-14T05:12:10.364Z,101026
2017-11-14T05:13:10.464Z,101026
2017-11-14T05:14:10.597Z,101028
2017-11-14T05:15:10.622Z,101027
2017-11-14T05:16:10.537Z,101028
2017-11-14T05:17:10.544Z,101021
2017-11-14T05:18:11.271Z,101022
2017-11-14T05:19:11.293Z,101023
2017-11-14T05:20:10.944Z,101026
2017-11-14T05:21:10.760Z,101021
2017-11-14T05:22:11.346Z,101028
2017-11-14T05:23:10.828Z,101024
2017-11-14T05:24:11.394Z,101020
2017-11-14T05:25:11.024Z,101028
2017-11-14T05:26:11.592Z,101025
2017-11-14T05:27:11.021Z,101028
2017-11-14T05:28:11.555Z,101018
2017-11-14T05:29:11.080Z,101031
2017-11-14T05:30:11.688Z,101028
2017-11-14T05:31:11.271Z,101024
2017-11-14T05:32:11.307Z,101025
2017-11-14T05:33:11.827Z,101026
2017-11-14T05:34:12.014Z,101026
2017-11-14T05:35:11.554Z,101033
2017-11-14T05:36:12.067Z,101036
2017-11-14T05:37:11.521Z,101025
2017-11-14T05:38:12.484Z,101032
2017-11-14T05:39:12.313Z,101035
2017-11-14T05:40:12.322Z,101037
2017-11-14T05:41:12.186Z,101034
2017-11-14T05:42:12.267Z,101034
2017-11-14T05:43:12.384Z,101038
2017-11-14T05:44:11.879Z,101038
2017-11-14T05:45:11.874Z,101035
2017-11-14T05:46:11.863Z,101043
2017-11-14T05:47:13.709Z,101044
2017-11-14T05:48:12.539Z,101045
2017-11-14T05:49:12.176Z,101035
2017-11-14T05:50:12.218Z,101039
2017-11-14T05:51:12.199Z,101037
2017-11-14T05:52:12.727Z,101040
2017-11-14T05:53:12.892Z,101033
2017-11-14T05:54:12.913Z,101048
2017-11-14T05:55:12.499Z,101039
2017-11-14T05:56:13.129Z,101042
2017-11-14T05:57:13.042Z,101041
2017-11-14T05:58:13.196Z,101045
2017-11-14T05:59:12.578Z,101049
2017-11-14T06:00:13.169Z,101048
2017-11-14T06:01:13.236Z,101043
2017-11-14T06:02:13.422Z,101049
2017-11-14T06:03:13.360Z,101053
2017-11-14T06:04:12.868Z,101056
2017-11-14T06:05:13.324Z,101058
2017-11-14T06:06:13.001Z,101059
2017-11-14T06:07:12.946Z,101061
2017-11-14T06:08:13.124Z,101062
2017-11-14T06:09:13.730Z,101064
2017-11-14T06:10:13.725Z,101064
2017-11-14T06:11:13.206Z,101068
2017-11-14T06:12:13.220Z,101066
2017-11-14T06:13:13.788Z,101075
2017-11-14T06:14:13.853Z,101075
2017-11-14T06:15:13.876Z,101079
2017-11-14T06:16:13.937Z,101078
2017-11-14T06:17:14.107Z,101079
2017-11-14T06:18:13.988Z,101083
2017-11-14T06:19:14.044Z,101085
2017-11-14T06:20:14.031Z,101080
2017-11-14T06:21:14.165Z,101072
2017-11-14T06:22:14.359Z,101074
2017-11-14T06:23:14.286Z,101076
2017-11-14T06:24:14.466Z,101075
2017-11-14T06:25:14.370Z,101072
2017-11-14T06:26:14.414Z,101076
2017-11-14T06:27:13.972Z,101081
2017-11-14T06:28:14.651Z,101078
2017-11-14T06:29:14.570Z,101079
2017-11-14T06:30:14.059Z,101076
2017-11-14T06:31:14.645Z,101076
2017-11-14T06:32:14.226Z,101074
2017-11-14T06:33:14.804Z,101081
2017-11-14T06:34:14.924Z,101077
2017-11-14T06:35:14.847Z,101076
2017-11-14T06:36:14.943Z,101082
2017-11-14T06:37:14.448Z,101081
2017-11-14T06:38:15.049Z,101084
2017-11-14T06:39:14.657Z,101086
2017-11-14T06:40:14.663Z,101081
2017-11-14T06:41:14.712Z,101092
2017-11-14T06:42:14.725Z,101082
2017-11-14T06:43:14.814Z,101083
2017-11-14T06:44:14.814Z,101084
2017-11-14T06:45:15.392Z,101082
2017-11-14T06:46:14.904Z,101077
2017-11-14T06:47:15.395Z,101086
2017-11-14T06:48:14.936Z,101089
2017-11-14T06:49:15.025Z,101094
2017-11-14T06:50:15.456Z,101089
2017-11-14T06:51:15.519Z,101093
2017-11-14T06:52:15.741Z,101097
2017-11-14T06:53:15.740Z,101095
2017-11-14T06:54:15.238Z,101092
2017-11-14T06:55:15.889Z,101100
2017-11-14T06:56:15.368Z,101090
2017-11-14T06:57:15.477Z,101093
2017-11-14T06:58:15.995Z,101096
2017-11-14T06:59:16.129Z,101097
2017-11-14T07:00:16.748Z,101094
2017-11-14T07:01:16.370Z,101094
2017-11-14T07:02:16.170Z,101095
2017-11-14T07:03:15.812Z,101097
2017-11-14T07:04:16.463Z,101098
2017-11-14T07:05:16.493Z,101101
2017-11-14T07:06:16.532Z,101101
2017-11-14T07:07:16.388Z,101099
2017-11-14T07:08:16.513Z,101098
2017-11-14T07:09:16.587Z,101098
2017-11-14T07:10:18.368Z,101099
2017-11-14T07:11:16.677Z,101103
2017-11-14T07:12:16.643Z,101102
2017-11-14T07:13:16.295Z,101100
2017-11-14T07:14:16.260Z,101104
2017-11-14T07:15:16.266Z,101103
2017-11-14T07:16:16.989Z,101115
2017-11-14T07:17:16.900Z,101103
2017-11-14T07:18:16.635Z,101113
2017-11-14T07:19:17.085Z,101104
2017-11-14T07:20:17.285Z,101101
2017-11-14T07:21:17.180Z,101104
2017-11-14T07:22:17.202Z,101110
2017-11-14T07:23:17.406Z,101101
2017-11-14T07:24:16.829Z,101102
2017-11-14T07:25:17.476Z,101106
2017-11-14T07:26:16.857Z,101102
2017-11-14T07:27:16.767Z,101104
2017-11-14T07:28:17.351Z,101099
2017-11-14T07:29:17.003Z,101103
2017-11-14T07:30:17.027Z,101109
2017-11-14T07:31:16.983Z,101103
2017-11-14T07:32:17.056Z,101114
2017-11-14T07:33:17.542Z,101106
2017-11-14T07:34:17.097Z,101108
2017-11-14T07:35:17.798Z,101109
2017-11-14T07:36:17.865Z,101112
2017-11-14T07:37:17.762Z,101113
2017-11-14T07:38:17.751Z,101120
2017-11-14T07:39:17.427Z,101113
2017-11-14T07:40:17.464Z,101116
2017-11-14T07:41:17.543Z,101111
2017-11-14T07:42:17.432Z,101115
2017-11-14T07:43:17.528Z,101113
2017-11-14T07:44:17.608Z,101112
2017-11-14T07:45:18.172Z,101108
2017-11-14T07:46:17.662Z,101109
2017-11-14T07:47:18.325Z,101114
2017-11-14T07:48:17.801Z,101113
2017-11-14T07:49:18.239Z,101108
2017-11-14T07:50:17.740Z,101119
2017-11-14T07:51:18.502Z,101106
2017-11-14T07:52:17.954Z,101106
2017-11-14T07:53:17.830Z,101114
2017-11-14T07:54:18.004Z,101113
2017-11-14T07:55:18.056Z,101116
2017-11-14T07:56:18.701Z,101116
2017-11-14T07:57:18.676Z,101113
2017-11-14T07:58:18.884Z,101115
2017-11-14T07:59:18.746Z,101118
2017-11-14T08:00:18.318Z,101112
2017-11-14T08:01:18.421Z,101116
2017-11-14T08:02:18.935Z,101118
2017-11-14T08:03:19.041Z,101117
2017-11-14T08:04:18.612Z,101119
2017-11-14T08:05:19.084Z,101122
2017-11-14T08:06:19.259Z,101122
2017-11-14T08:07:18.685Z,101120
2017-11-14T08:08:19.260Z,101119
2017-11-14T08:09:19.248Z,101123
2017-11-14T08:10:19.289Z,101120
2017-11-14T08:11:19.386Z,101116
2017-11-14T08:12:19.293Z,101118
2017-11-14T08:13:18.958Z,101117
2017-11-14T08:14:18.973Z,101114
2017-11-14T08:15:19.061Z,101116
2017-11-14T08:16:19.022Z,101117
2017-11-14T08:17:19.525Z,101122
2017-11-14T08:18:19.156Z,101116
2017-11-14T08:19:19.134Z,101115
2017-11-14T08:20:19.302Z,101118
2017-11-14T08:21:19.268Z,101113
2017-11-14T08:22:19.747Z,101113
2017-11-14T08:23:19.793Z,101112
2017-11-14T08:24:19.833Z,101111
2017-11-14T08:25:20.034Z,101109
2017-11-14T08:26:19.957Z,101111
2017-11-14T08:27:19.720Z,101113
2017-11-14T08:28:20.090Z,101108
2017-11-14T08:29:20.956Z,101112
2017-11-14T08:30:19.721Z,101119
2017-11-14T08:31:19.901Z,101117
2017-11-14T08:32:20.303Z,101116
2017-11-14T08:33:20.354Z,101119
2017-11-14T08:34:20.345Z,101123
2017-11-14T08:35:20.058Z,101121
2017-11-14T08:36:20.741Z,101127
2017-11-14T08:37:20.116Z,101119
2017-11-14T08:38:20.645Z,101127
2017-11-14T08:39:20.564Z,101130
2017-11-14T08:40:20.199Z,101119
2017-11-14T08:41:20.699Z,101129
2017-11-14T08:42:20.021Z,101127
2017-11-14T08:43:20.182Z,101123
2017-11-14T08:44:20.709Z,101133
2017-11-14T08:45:20.824Z,101132
2017-11-14T08:46:20.352Z,101134
2017-11-14T08:47:20.419Z,101130
2017-11-14T08:48:20.921Z,101128
2017-11-14T08:49:21.022Z,101119
2017-11-14T08:50:20.589Z,101121
2017-11-14T08:51:21.170Z,101130
2017-11-14T08:52:20.604Z,101117
2017-11-14T08:53:21.108Z,101125
2017-11-14T08:54:21.212Z,101122
2017-11-14T08:55:21.252Z,101115
2017-11-14T08:56:20.836Z,101110
2017-11-14T08:57:20.790Z,101120
2017-11-14T08:58:21.442Z,101114
2017-11-14T08:59:20.907Z,101120
2017-11-14T09:00:21.111Z,101113
2017-11-14T09:01:21.020Z,101116
2017-11-14T09:02:21.059Z,101120
2017-11-14T09:03:21.800Z,101108
2017-11-14T09:04:21.765Z,101112
2017-11-14T09:05:21.220Z,101108
2017-11-14T09:06:21.214Z,101114
2017-11-14T09:07:21.330Z,101108
2017-11-14T09:08:21.341Z,101107
2017-11-14T09:09:21.554Z,101105
2017-11-14T09:10:21.548Z,101097
2017-11-14T09:11:22.094Z,101106
2017-11-14T09:12:22.128Z,101113
2017-11-14T09:13:22.004Z,101118
2017-11-14T09:14:22.206Z,101115
2017-11-14T09:15:21.770Z,101108
2017-11-14T09:16:21.692Z,101105
2017-11-14T09:17:23.191Z,101104
2017-11-14T09:18:22.424Z,101107
2017-11-14T09:19:22.589Z,101107
2017-11-14T09:20:22.543Z,101103
2017-11-14T09:21:22.505Z,101100
2017-11-14T09:22:22.593Z,101101
2017-11-14T09:23:22.731Z,101099
2017-11-14T09:24:22.674Z,101105
2017-11-14T09:25:22.384Z,101099
2017-11-14T09:26:23.100Z,101103
2017-11-14T09:27:22.859Z,101111
2017-11-14T09:28:23.051Z,101105
2017-11-14T09:29:22.464Z,101106
2017-11-14T09:30:22.520Z,101109
2017-11-14T09:31:23.141Z,101101
2017-11-14T09:32:22.930Z,101110
2017-11-14T09:33:22.797Z,101107
2017-11-14T09:34:22.792Z,101109
2017-11-14T09:35:22.911Z,101117
2017-11-14T09:36:22.926Z,101114
2017-11-14T09:37:23.453Z,101116
2017-11-14T09:38:23.365Z,101120
2017-11-14T09:39:25.032Z,101124
2017-11-14T09:40:23.504Z,101120
2017-11-14T09:41:23.168Z,101115
2017-11-14T09:42:23.732Z,101121
2017-11-14T09:43:23.282Z,101114
2017-11-14T09:44:23.309Z,101117
2017-11-14T09:45:23.826Z,101107
2017-11-14T09:46:23.749Z,101106
2017-11-14T09:47:23.549Z,101105
2017-11-14T09:48:23.997Z,101121
2017-11-14T09:49:23.480Z,101110
2017-11-14T09:50:24.141Z,101111
2017-11-14T09:51:24.066Z,101135
2017-11-14T09:52:24.905Z,101130
2017-11-14T09:53:24.369Z,101120
2017-11-14T09:54:23.849Z,101123
2017-11-14T09:55:24.307Z,101128
2017-11-14T09:56:24.376Z,101132
2017-11-14T09:57:24.350Z,101142
2017-11-14T09:58:24.056Z,101140
2017-11-14T09:59:23.902Z,101139
2017-11-14T10:00:24.063Z,101148
2017-11-14T10:01:24.306Z,101140
2017-11-14T10:02:24.174Z,101143
2017-11-14T10:03:24.086Z,101146
2017-11-14T10:04:24.658Z,101158
2017-11-14T10:05:26.485Z,101153
2017-11-14T10:06:25.812Z,101150
2017-11-14T10:07:24.376Z,101161
2017-11-14T10:08:25.049Z,101156
2017-11-14T10:09:25.402Z,101165
2017-11-14T10:10:24.971Z,101166
2017-11-14T10:11:24.436Z,101165
2017-11-14T10:12:24.609Z,101165
2017-11-14T10:13:24.695Z,101180
2017-11-14T10:14:25.252Z,101165
2017-11-14T10:15:24.877Z,101167
2017-11-14T10:16:25.235Z,101177
2017-11-14T10:17:25.296Z,101174
2017-11-14T10:18:25.274Z,101176
2017-11-14T10:19:24.850Z,101174
2017-11-14T10:20:25.421Z,101180
2017-11-14T10:21:25.295Z,101169
2017-11-14T10:22:25.833Z,101179
2017-11-14T10:23:25.058Z,101182
2017-11-14T10:24:25.537Z,101174
2017-11-14T10:25:25.399Z,101181
2017-11-14T10:26:25.321Z,101182
2017-11-14T10:27:25.944Z,101178
2017-11-14T10:28:25.290Z,101178
2017-11-14T10:29:25.444Z,101179
2017-11-14T10:30:25.574Z,101187
2017-11-14T10:31:26.191Z,101174
2017-11-14T10:32:26.150Z,101178
2017-11-14T10:33:26.421Z,101173
2017-11-14T10:34:26.386Z,101172
2017-11-14T10:35:26.170Z,101174
2017-11-14T10:36:26.423Z,101187
2017-11-14T10:37:25.648Z,101182
2017-11-14T10:38:26.349Z,101189
2017-11-14T10:39:25.873Z,101193
2017-11-14T10:40:26.382Z,101185
2017-11-14T10:41:25.816Z,101181
2017-11-14T10:42:25.919Z,101179
2017-11-14T10:43:26.576Z,101183
2017-11-14T10:44:26.633Z,101173
2017-11-14T10:45:26.536Z,101176
2017-11-14T10:46:26.769Z,101176
2017-11-14T10:47:26.768Z,101176
2017-11-14T10:48:26.324Z,101173
2017-11-14T10:49:26.937Z,101173
2017-11-14T10:50:26.979Z,101169
2017-11-14T10:51:26.331Z,101172
2017-11-14T10:52:26.874Z,101168
2017-11-14T10:53:26.437Z,101162
2017-11-14T10:54:26.647Z,101167
2017-11-14T10:55:27.125Z,101172
2017-11-14T10:56:28.091Z,101167
2017-11-14T10:57:26.707Z,101173
2017-11-14T10:58:26.853Z,101163
2017-11-14T10:59:27.610Z,101165
2017-11-14T11:00:26.965Z,101160
2017-11-14T11:01:27.080Z,101150
2017-11-14T11:02:27.622Z,101150
2017-11-14T11:03:27.454Z,101149
2017-11-14T11:04:28.128Z,101150
2017-11-14T11:05:28.100Z,101155
2017-11-14T11:06:27.511Z,101142
2017-11-14T11:07:28.085Z,101145
2017-11-14T11:08:27.515Z,101135
2017-11-14T11:09:27.718Z,101134
2017-11-14T11:10:27.822Z,101130
2017-11-14T11:11:27.425Z,101127
2017-11-14T11:12:27.395Z,101126
2017-11-14T11:13:27.623Z,101138
2017-11-14T11:14:28.059Z,101126
2017-11-14T11:15:27.604Z,101125
2017-11-14T11:16:27.598Z,101123
2017-11-14T11:17:28.401Z,101129
2017-11-14T11:18:28.168Z,101133
2017-11-14T11:19:28.385Z,101124
2017-11-14T11:20:28.130Z,101130
2017-11-14T11:21:28.415Z,101130
2017-11-14T11:22:27.791Z,101129
2017-11-14T11:23:28.629Z,101127
2017-11-14T11:24:28.784Z,101133
2017-11-14T11:25:28.137Z,101123
2017-11-14T11:26:28.128Z,101126
2017-11-14T11:27:28.190Z,101122
2017-11-14T11:28:28.192Z,101124
2017-11-14T11:29:28.694Z,101119
2017-11-14T11:30:28.743Z,101125
2017-11-14T11:31:28.630Z,101121
2017-11-14T11:32:28.311Z,101126
2017-11-14T11:33:28.529Z,101123
2017-11-14T11:34:29.612Z,101124
2017-11-14T11:35:28.470Z,101119
2017-11-14T11:36:28.508Z,101118
2017-11-14T11:37:29.143Z,101106
2017-11-14T11:38:28.614Z,101101
2017-11-14T11:39:29.290Z,101118
2017-11-14T11:40:29.153Z,101115
2017-11-14T11:41:28.783Z,101108
2017-11-14T11:42:29.556Z,101108
2017-11-14T11:43:29.455Z,101120
2017-11-14T11:44:29.441Z,101106
2017-11-14T11:45:28.819Z,101118
2017-11-14T11:46:28.994Z,101103
2017-11-14T11:47:29.987Z,101109
2017-11-14T11:48:29.529Z,101104
2017-11-14T11:49:29.211Z,101102
2017-11-14T11:50:29.840Z,101106
2017-11-14T11:51:29.867Z,101106
2017-11-14T11:52:29.806Z,101093
2017-11-14T11:53:29.269Z,101106
2017-11-14T11:54:29.379Z,101107
2017-11-14T11:55:30.004Z,101110
2017-11-14T11:56:29.531Z,101106
2017-11-14T11:57:29.707Z,101101
2017-11-14T11:58:30.691Z,101104
2017-11-14T11:59:30.389Z,101099
2017-11-14T12:00:30.305Z,101086
2017-11-14T12:01:32.806Z,101098
2017-11-14T12:02:30.054Z,101095
2017-11-14T12:03:29.865Z,101094
2017-11-14T12:04:29.855Z,101095
2017-11-14T12:05:30.036Z,101094
2017-11-14T12:06:30.505Z,101093
2017-11-14T12:07:30.087Z,101095
2017-11-14T12:08:30.296Z,101093
2017-11-14T12:09:30.659Z,101095
2017-11-14T12:10:30.242Z,101098
2017-11-14T12:11:30.839Z,101112
2017-11-14T12:12:30.388Z,101099
2017-11-14T12:13:30.340Z,101109
2017-11-14T12:14:30.347Z,101106
2017-11-14T12:15:30.983Z,101104
2017-11-14T12:16:30.448Z,101104
2017-11-14T12:17:31.108Z,101101
2017-11-14T12:18:31.004Z,101102
2017-11-14T12:19:31.264Z,101101
2017-11-14T12:20:30.667Z,101100
2017-11-14T12:21:31.225Z,101102
2017-11-14T12:22:30.749Z,101109
2017-11-14T12:23:31.199Z,101098
2017-11-14T12:24:31.888Z,101102
2017-11-14T12:25:31.464Z,101102
2017-11-14T12:26:31.581Z,101084
2017-11-14T12:27:31.410Z,101091
2017-11-14T12:28:31.564Z,101094
2017-11-14T12:29:31.085Z,101092